createdAt,value
2023-04-30T00:04:01.684Z,9.25
2023-04-30T00:09:04.168Z,7.22
2023-04-30T00:14:06.943Z,8.80
2023-04-30T00:19:09.812Z,7.43
2023-04-30T00:24:12.427Z,8.30
2023-04-30T00:29:14.949Z,8.33
2023-04-30T00:34:17.599Z,8.38
2023-04-30T00:39:20.181Z,7.93
2023-04-30T00:44:24.873Z,8.40
2023-04-30T00:49:28.444Z,7.30
2023-04-30T00:54:31.599Z,7.55
2023-04-30T00:59:34.150Z,7.27
2023-04-30T01:04:36.920Z,8.23
2023-04-30T01:09:42.972Z,5.77
2023-04-30T01:15:02.318Z,8.32
2023-04-30T01:20:06.328Z,7.00
2023-04-30T01:25:25.222Z,7.22
2023-04-30T01:30:32.946Z,6.75
2023-04-30T01:35:47.931Z,6.22
2023-04-30T01:40:55.833Z,5.10
2023-04-30T01:46:07.689Z,5.75
2023-04-30T01:51:33.250Z,5.60
2023-04-30T01:56:44.586Z,5.30
2023-04-30T02:01:47.395Z,5.95
2023-04-30T02:06:49.997Z,5.10
2023-04-30T02:11:52.768Z,5.32
2023-04-30T02:16:56.028Z,6.13
2023-04-30T02:21:58.707Z,5.63
2023-04-30T02:27:02.726Z,5.28
2023-04-30T02:32:05.613Z,5.72
2023-04-30T02:37:09.481Z,5.30
2023-04-30T02:42:12.540Z,5.43
2023-04-30T02:47:15.450Z,5.50
2023-04-30T02:52:18.483Z,5.30
2023-04-30T02:57:21.710Z,5.28
2023-04-30T03:02:24.314Z,5.70
2023-04-30T03:07:32.242Z,5.70
2023-04-30T03:12:35.347Z,5.63
2023-04-30T03:17:37.777Z,5.68
2023-04-30T03:22:40.518Z,5.50
2023-04-30T03:27:44.936Z,5.45
2023-04-30T03:32:48.091Z,5.27
2023-04-30T03:37:50.740Z,5.03
2023-04-30T03:42:53.229Z,4.80
2023-04-30T03:47:56.064Z,4.53
2023-04-30T03:52:59.164Z,5.13
2023-04-30T03:58:02.425Z,5.50
2023-04-30T04:03:05.109Z,5.25
2023-04-30T04:08:13.131Z,5.55
2023-04-30T04:13:16.982Z,5.18
2023-04-30T04:18:24.097Z,5.07
2023-04-30T04:23:27.660Z,4.53
2023-04-30T04:28:31.105Z,5.13
2023-04-30T04:33:33.670Z,4.35
2023-04-30T04:38:38.398Z,4.65
2023-04-30T04:43:41.389Z,7.07
2023-04-30T04:48:44.632Z,9.68
2023-04-30T04:53:47.656Z,5.30
2023-04-30T04:58:50.402Z,5.93
2023-04-30T05:03:54.581Z,7.53
2023-04-30T05:08:57.803Z,5.00
2023-04-30T05:14:04.285Z,4.22
2023-04-30T05:19:07.380Z,3.85
2023-04-30T05:24:10.951Z,3.83
2023-04-30T05:34:16.759Z,3.10
2023-04-30T05:44:25.101Z,3.80
2023-04-30T05:49:27.763Z,3.65
2023-04-30T05:54:31.865Z,3.65
2023-04-30T05:59:34.725Z,11.13
2023-04-30T06:04:39.402Z,6.13
2023-04-30T06:09:48.370Z,11.75
2023-04-30T06:14:52.292Z,11.48
2023-04-30T06:19:55.017Z,4.45
2023-04-30T06:30:03.050Z,3.30
2023-04-30T06:35:06.058Z,4.65
2023-04-30T06:40:09.092Z,3.78
2023-04-30T06:45:12.639Z,4.63
2023-04-30T06:50:16.036Z,3.80
2023-04-30T06:55:18.734Z,3.60
2023-04-30T07:00:21.651Z,3.00
2023-04-30T07:05:24.208Z,4.07
2023-04-30T07:10:27.126Z,3.60
2023-04-30T07:15:29.729Z,3.05
2023-04-30T07:25:35.968Z,3.30
2023-04-30T07:35:41.664Z,2.53
2023-04-30T07:40:44.555Z,2.70
2023-04-30T07:45:47.148Z,2.63
2023-04-30T07:55:54.631Z,2.58
2023-04-30T08:00:57.495Z,2.50
2023-04-30T08:06:00.130Z,2.63
2023-04-30T08:11:02.972Z,4.25
2023-04-30T08:21:14.366Z,2.65
2023-04-30T08:26:17.099Z,2.70
2023-04-30T08:31:19.672Z,2.45
2023-04-30T08:36:22.295Z,4.40
2023-04-30T08:41:33.649Z,2.88
2023-04-30T08:46:39.547Z,2.35
2023-04-30T08:51:42.628Z,3.00
2023-04-30T08:56:46.244Z,6.70
2023-04-30T09:01:51.249Z,2.50
2023-04-30T09:06:59.480Z,2.30
2023-04-30T09:12:18.446Z,5.13
2023-04-30T09:17:22.788Z,3.60
2023-04-30T09:22:29.578Z,2.65
2023-04-30T09:27:35.590Z,2.88
2023-04-30T09:32:55.895Z,2.17
2023-04-30T09:38:02.725Z,2.17
2023-04-30T09:43:05.394Z,3.50
2023-04-30T09:48:17.259Z,2.75
2023-04-30T09:53:20.909Z,2.55
2023-04-30T09:58:23.518Z,2.50
2023-04-30T10:03:26.193Z,2.00
2023-04-30T10:08:31.147Z,2.00
2023-04-30T10:13:50.764Z,2.10
2023-04-30T10:18:54.273Z,2.30
2023-04-30T10:23:57.104Z,2.30
2023-04-30T10:29:01.276Z,2.20
2023-04-30T10:34:13.514Z,2.03
2023-04-30T10:39:22.182Z,2.63
2023-04-30T10:44:26.707Z,6.05
2023-04-30T10:49:29.968Z,4.63
2023-04-30T10:54:35.986Z,5.50
2023-04-30T10:59:38.994Z,2.13
2023-04-30T11:10:03.430Z,1.67
2023-04-30T11:15:13.887Z,4.40
2023-04-30T11:20:21.235Z,5.25
2023-04-30T11:25:24.118Z,2.28
2023-04-30T11:35:29.890Z,2.13
2023-04-30T11:40:35.997Z,2.50
2023-04-30T11:45:39.461Z,2.33
2023-04-30T11:50:43.223Z,2.80
2023-04-30T11:55:46.100Z,3.03
2023-04-30T12:00:52.615Z,3.08
2023-04-30T12:06:02.715Z,4.35
2023-04-30T12:11:22.606Z,2.78
2023-04-30T12:16:51.505Z,2.88
2023-04-30T12:21:55.488Z,2.17
2023-04-30T12:27:01.213Z,2.72
2023-04-30T12:32:08.083Z,2.60
2023-04-30T12:37:18.066Z,2.83
2023-04-30T12:42:22.108Z,2.65
2023-04-30T12:47:25.676Z,5.15
2023-04-30T12:52:32.959Z,2.88
2023-04-30T12:57:36.436Z,2.88
2023-04-30T13:02:41.807Z,2.95
2023-04-30T13:07:50.419Z,5.70
2023-04-30T13:12:54.908Z,3.70
2023-04-30T13:17:58.106Z,2.78
2023-04-30T13:23:02.803Z,3.00
2023-04-30T13:28:05.764Z,2.97
2023-04-30T13:33:09.373Z,2.67
2023-04-30T13:38:14.148Z,6.57
2023-04-30T13:43:17.328Z,3.80
2023-04-30T13:48:20.184Z,14.77
2023-04-30T13:53:23.072Z,3.03
2023-04-30T13:58:31.974Z,3.10
2023-04-30T14:03:37.856Z,5.32
2023-04-30T14:08:41.006Z,2.20
2023-04-30T14:13:43.813Z,3.58
2023-04-30T14:18:48.181Z,5.40
2023-04-30T14:24:00.713Z,6.00
2023-04-30T14:29:09.959Z,3.58
2023-04-30T14:34:16.492Z,4.32
2023-04-30T14:39:19.472Z,4.40
2023-04-30T14:44:24.072Z,3.47
2023-04-30T14:49:28.068Z,2.60
2023-04-30T14:54:33.009Z,3.13
2023-04-30T14:59:45.110Z,3.92
2023-04-30T15:04:48.785Z,3.78
2023-04-30T15:09:54.456Z,5.43
2023-04-30T15:14:57.449Z,6.15
2023-04-30T15:20:05.538Z,4.53
2023-04-30T15:25:09.266Z,6.90
2023-04-30T15:35:49.367Z,4.90
2023-04-30T15:40:52.255Z,3.38
2023-04-30T15:45:55.375Z,4.35
2023-04-30T15:50:58.941Z,3.67
2023-04-30T15:56:04.913Z,4.20
2023-04-30T16:01:09.122Z,3.78
2023-04-30T16:06:14.041Z,2.72
2023-04-30T16:16:24.372Z,2.75
2023-04-30T16:21:31.705Z,2.38
2023-04-30T16:26:40.244Z,5.97
2023-04-30T16:31:43.922Z,4.55
2023-04-30T16:36:47.012Z,5.90
2023-04-30T16:41:54.303Z,4.78
2023-04-30T16:47:03.770Z,3.97
2023-04-30T16:52:18.488Z,3.70
2023-04-30T16:57:21.750Z,6.47
2023-04-30T17:02:29.012Z,11.98
2023-04-30T17:07:35.034Z,14.35
2023-04-30T17:12:42.970Z,11.20
2023-04-30T17:17:48.552Z,14.07
2023-04-30T17:22:51.429Z,11.57
2023-04-30T17:27:54.728Z,16.17
2023-04-30T17:38:00.906Z,33.45
2023-04-30T17:43:03.966Z,31.50
2023-04-30T17:48:06.750Z,21.83
2023-04-30T17:53:09.541Z,21.33
2023-04-30T17:58:12.835Z,25.60
2023-04-30T18:03:15.493Z,45.38
2023-04-30T18:08:18.288Z,47.00
2023-04-30T18:13:21.293Z,46.60
2023-04-30T18:18:24.170Z,38.67
2023-04-30T18:23:29.639Z,21.63
2023-04-30T18:28:32.711Z,33.65
2023-04-30T18:33:36.628Z,82.60
2023-04-30T18:38:39.425Z,153.13
2023-04-30T18:43:45.253Z,112.68
2023-04-30T18:48:50.665Z,73.53
2023-04-30T18:53:53.399Z,61.50
2023-04-30T18:58:57.957Z,57.15
2023-04-30T19:04:01.877Z,38.10
2023-04-30T19:09:06.204Z,44.70
2023-04-30T19:14:12.613Z,33.63
2023-04-30T19:19:15.333Z,38.55
2023-04-30T19:24:19.355Z,73.80
2023-04-30T19:29:22.464Z,65.82
2023-04-30T19:34:27.704Z,43.20
2023-04-30T19:39:37.277Z,35.13
2023-04-30T19:44:41.868Z,33.92
2023-04-30T19:49:48.264Z,35.15
2023-04-30T19:54:51.713Z,69.05
2023-04-30T19:59:56.548Z,89.72
2023-04-30T20:04:59.310Z,86.30
2023-04-30T20:10:06.405Z,58.85
2023-04-30T20:15:13.462Z,29.77
2023-04-30T20:20:17.498Z,23.45
2023-04-30T20:25:21.864Z,31.55
2023-04-30T20:30:27.423Z,37.60
2023-04-30T20:35:31.565Z,33.30
2023-04-30T20:40:40.316Z,36.50
2023-04-30T20:45:46.372Z,39.03
2023-04-30T20:50:49.272Z,38.05
2023-04-30T20:56:00.176Z,37.42
2023-04-30T21:01:04.210Z,34.67
2023-04-30T21:06:07.574Z,25.08
2023-04-30T21:11:14.492Z,32.03
2023-04-30T21:16:17.434Z,20.67
2023-04-30T21:21:22.822Z,18.03
2023-04-30T21:26:25.709Z,20.13
2023-04-30T21:31:28.988Z,25.08
2023-04-30T21:36:32.026Z,23.25
2023-04-30T21:41:35.033Z,25.77
2023-04-30T21:46:39.350Z,33.13
2023-04-30T21:51:41.969Z,38.20
2023-04-30T21:56:45.104Z,48.47
2023-04-30T22:01:48.837Z,43.85
2023-04-30T22:06:54.940Z,41.22
2023-04-30T22:12:04.809Z,38.03
2023-04-30T22:17:07.714Z,39.88
2023-04-30T22:22:10.918Z,44.08
2023-04-30T22:27:13.978Z,46.47
2023-04-30T22:32:19.732Z,22.80
2023-04-30T22:37:22.689Z,14.63
2023-04-30T22:42:26.160Z,10.52
2023-04-30T22:47:29.043Z,8.82
2023-04-30T22:52:33.384Z,8.77
2023-04-30T22:57:36.503Z,9.02
2023-04-30T23:02:39.321Z,7.93
2023-04-30T23:07:42.758Z,7.55
2023-04-30T23:12:50.015Z,7.95
2023-04-30T23:17:54.733Z,7.47
2023-04-30T23:22:57.757Z,7.18
2023-04-30T23:28:00.541Z,6.47
2023-04-30T23:33:04.596Z,5.00
2023-04-30T23:38:08.397Z,7.30
2023-04-30T23:43:11.975Z,6.75
2023-04-30T23:48:14.668Z,6.47
2023-04-30T23:53:17.465Z,8.10
2023-04-30T23:58:20.235Z,18.23
